sensor_id;sensor_type;location;lat;lon;timestamp;P1;durP1;ratioP1;P2;durP2;ratioP2
31990;SDS011;18508;49.386;8.370;2024-01-10T00:02:18;29.38;;;13.70;;
31990;SDS011;18508;49.386;8.370;2024-01-10T00:04:48;30.85;;;12.27;;
31990;SDS011;18508;49.386;8.370;2024-01-10T00:07:17;32.65;;;12.40;;
31990;SDS011;18508;49.386;8.370;2024-01-10T00:09:45;34.08;;;12.85;;
31990;SDS011;18508;49.386;8.370;2024-01-10T00:12:14;27.05;;;10.55;;
31990;SDS011;18508;49.386;8.370;2024-01-10T00:14:42;28.17;;;12.55;;
31990;SDS011;18508;49.386;8.370;2024-01-10T00:17:10;26.90;;;11.25;;
31990;SDS011;18508;49.386;8.370;2024-01-10T00:19:39;25.90;;;11.55;;
31990;SDS011;18508;49.386;8.370;2024-01-10T00:22:08;26.85;;;11.10;;
31990;SDS011;18508;49.386;8.370;2024-01-10T00:24:36;27.65;;;11.15;;
31990;SDS011;18508;49.386;8.370;2024-01-10T00:27:05;29.45;;;12.43;;
31990;SDS011;18508;49.386;8.370;2024-01-10T00:29:33;26.58;;;12.45;;
31990;SDS011;18508;49.386;8.370;2024-01-10T00:32:02;25.40;;;11.60;;
31990;SDS011;18508;49.386;8.370;2024-01-10T00:34:30;27.67;;;11.55;;
31990;SDS011;18508;49.386;8.370;2024-01-10T00:36:59;30.27;;;12.50;;
31990;SDS011;18508;49.386;8.370;2024-01-10T00:39:29;27.40;;;11.65;;
31990;SDS011;18508;49.386;8.370;2024-01-10T00:41:57;32.35;;;13.30;;
31990;SDS011;18508;49.386;8.370;2024-01-10T00:44:25;31.52;;;12.18;;
31990;SDS011;18508;49.386;8.370;2024-01-10T00:46:54;26.55;;;12.48;;
31990;SDS011;18508;49.386;8.370;2024-01-10T00:49:23;33.70;;;13.27;;
31990;SDS011;18508;49.386;8.370;2024-01-10T00:51:51;31.83;;;13.00;;
31990;SDS011;18508;49.386;8.370;2024-01-10T00:54:20;32.30;;;12.60;;
31990;SDS011;18508;49.386;8.370;2024-01-10T00:56:50;29.58;;;12.05;;
31990;SDS011;18508;49.386;8.370;2024-01-10T00:59:19;30.75;;;13.02;;
31990;SDS011;18508;49.386;8.370;2024-01-10T01:01:47;29.98;;;12.30;;
31990;SDS011;18508;49.386;8.370;2024-01-10T01:04:16;30.55;;;14.02;;
31990;SDS011;18508;49.386;8.370;2024-01-10T01:06:44;28.27;;;12.32;;
31990;SDS011;18508;49.386;8.370;2024-01-10T01:09:13;28.15;;;12.40;;
31990;SDS011;18508;49.386;8.370;2024-01-10T01:11:42;30.88;;;12.93;;
31990;SDS011;18508;49.386;8.370;2024-01-10T01:14:12;26.02;;;12.77;;
31990;SDS011;18508;49.386;8.370;2024-01-10T01:16:40;28.33;;;12.38;;
31990;SDS011;18508;49.386;8.370;2024-01-10T01:19:08;28.10;;;12.05;;
31990;SDS011;18508;49.386;8.370;2024-01-10T01:21:37;28.38;;;12.43;;
31990;SDS011;18508;49.386;8.370;2024-01-10T01:24:05;40.97;;;13.85;;
31990;SDS011;18508;49.386;8.370;2024-01-10T01:26:33;33.75;;;13.35;;
31990;SDS011;18508;49.386;8.370;2024-01-10T01:29:02;33.58;;;13.77;;
31990;SDS011;18508;49.386;8.370;2024-01-10T01:31:32;34.58;;;14.98;;
31990;SDS011;18508;49.386;8.370;2024-01-10T01:34:00;28.92;;;13.23;;
31990;SDS011;18508;49.386;8.370;2024-01-10T01:36:28;33.45;;;13.30;;
31990;SDS011;18508;49.386;8.370;2024-01-10T01:38:57;38.35;;;15.13;;
31990;SDS011;18508;49.386;8.370;2024-01-10T01:41:25;33.00;;;13.98;;
31990;SDS011;18508;49.386;8.370;2024-01-10T01:43:54;37.95;;;14.10;;
31990;SDS011;18508;49.386;8.370;2024-01-10T01:46:23;33.65;;;13.57;;
31990;SDS011;18508;49.386;8.370;2024-01-10T01:48:52;35.05;;;13.73;;
31990;SDS011;18508;49.386;8.370;2024-01-10T01:51:21;33.83;;;13.52;;
31990;SDS011;18508;49.386;8.370;2024-01-10T01:53:50;32.15;;;14.05;;
31990;SDS011;18508;49.386;8.370;2024-01-10T01:56:18;35.65;;;14.27;;
31990;SDS011;18508;49.386;8.370;2024-01-10T01:58:47;40.67;;;15.00;;
31990;SDS011;18508;49.386;8.370;2024-01-10T02:01:17;37.97;;;14.02;;
31990;SDS011;18508;49.386;8.370;2024-01-10T02:03:48;37.97;;;15.02;;
31990;SDS011;18508;49.386;8.370;2024-01-10T02:06:18;40.45;;;14.52;;
31990;SDS011;18508;49.386;8.370;2024-01-10T02:08:46;36.60;;;14.95;;
31990;SDS011;18508;49.386;8.370;2024-01-10T02:11:15;36.25;;;15.55;;
31990;SDS011;18508;49.386;8.370;2024-01-10T02:13:43;34.97;;;15.27;;
31990;SDS011;18508;49.386;8.370;2024-01-10T02:16:12;45.58;;;15.98;;
31990;SDS011;18508;49.386;8.370;2024-01-10T02:18:41;34.25;;;15.05;;
31990;SDS011;18508;49.386;8.370;2024-01-10T02:21:09;36.50;;;15.50;;
31990;SDS011;18508;49.386;8.370;2024-01-10T02:23:39;40.70;;;17.05;;
31990;SDS011;18508;49.386;8.370;2024-01-10T02:26:09;39.28;;;16.40;;
31990;SDS011;18508;49.386;8.370;2024-01-10T02:28:37;40.63;;;15.80;;
31990;SDS011;18508;49.386;8.370;2024-01-10T02:31:06;36.83;;;14.40;;
31990;SDS011;18508;49.386;8.370;2024-01-10T02:33:34;38.38;;;15.23;;
31990;SDS011;18508;49.386;8.370;2024-01-10T02:36:03;39.38;;;14.50;;
31990;SDS011;18508;49.386;8.370;2024-01-10T02:38:32;38.33;;;15.20;;
31990;SDS011;18508;49.386;8.370;2024-01-10T02:41:00;41.50;;;15.95;;
31990;SDS011;18508;49.386;8.370;2024-01-10T02:43:30;43.75;;;16.40;;
31990;SDS011;18508;49.386;8.370;2024-01-10T02:45:59;36.70;;;14.82;;
31990;SDS011;18508;49.386;8.370;2024-01-10T02:48:27;39.13;;;15.18;;
31990;SDS011;18508;49.386;8.370;2024-01-10T02:50:56;36.95;;;14.82;;
31990;SDS011;18508;49.386;8.370;2024-01-10T02:53:26;35.35;;;16.55;;
31990;SDS011;18508;49.386;8.370;2024-01-10T02:55:57;38.95;;;15.68;;
31990;SDS011;18508;49.386;8.370;2024-01-10T02:58:25;36.65;;;15.18;;
31990;SDS011;18508;49.386;8.370;2024-01-10T03:00:57;40.13;;;16.27;;
31990;SDS011;18508;49.386;8.370;2024-01-10T03:03:28;36.80;;;15.23;;
31990;SDS011;18508;49.386;8.370;2024-01-10T03:05:57;32.45;;;15.07;;
31990;SDS011;18508;49.386;8.370;2024-01-10T03:08:25;38.38;;;15.60;;
31990;SDS011;18508;49.386;8.370;2024-01-10T03:10:54;35.67;;;15.38;;
31990;SDS011;18508;49.386;8.370;2024-01-10T03:13:22;37.80;;;15.68;;
31990;SDS011;18508;49.386;8.370;2024-01-10T03:15:51;38.88;;;15.93;;
31990;SDS011;18508;49.386;8.370;2024-01-10T03:18:21;37.55;;;15.73;;
31990;SDS011;18508;49.386;8.370;2024-01-10T03:20:50;36.13;;;16.40;;
31990;SDS011;18508;49.386;8.370;2024-01-10T03:23:19;40.35;;;16.50;;
31990;SDS011;18508;49.386;8.370;2024-01-10T03:25:48;33.78;;;14.65;;
31990;SDS011;18508;49.386;8.370;2024-01-10T03:28:16;37.63;;;14.82;;
31990;SDS011;18508;49.386;8.370;2024-01-10T03:30:44;45.63;;;17.17;;
31990;SDS011;18508;49.386;8.370;2024-01-10T03:33:15;40.78;;;16.17;;
31990;SDS011;18508;49.386;8.370;2024-01-10T03:35:45;35.95;;;15.07;;
31990;SDS011;18508;49.386;8.370;2024-01-10T03:38:14;39.92;;;15.57;;
31990;SDS011;18508;49.386;8.370;2024-01-10T03:40:42;37.00;;;15.43;;
31990;SDS011;18508;49.386;8.370;2024-01-10T03:43:11;36.28;;;15.02;;
31990;SDS011;18508;49.386;8.370;2024-01-10T03:45:40;38.60;;;15.52;;
31990;SDS011;18508;49.386;8.370;2024-01-10T03:48:08;39.05;;;15.85;;
31990;SDS011;18508;49.386;8.370;2024-01-10T03:50:37;38.60;;;16.17;;
31990;SDS011;18508;49.386;8.370;2024-01-10T03:53:07;41.35;;;17.65;;
31990;SDS011;18508;49.386;8.370;2024-01-10T03:55:35;40.17;;;16.83;;
31990;SDS011;18508;49.386;8.370;2024-01-10T03:58:05;41.55;;;16.83;;
31990;SDS011;18508;49.386;8.370;2024-01-10T04:00:34;43.47;;;16.35;;
31990;SDS011;18508;49.386;8.370;2024-01-10T04:03:02;37.55;;;15.35;;
31990;SDS011;18508;49.386;8.370;2024-01-10T04:05:31;38.67;;;16.40;;
31990;SDS011;18508;49.386;8.370;2024-01-10T04:08:00;45.33;;;17.77;;
31990;SDS011;18508;49.386;8.370;2024-01-10T04:10:30;39.72;;;16.63;;
31990;SDS011;18508;49.386;8.370;2024-01-10T04:12:58;38.17;;;16.23;;
31990;SDS011;18508;49.386;8.370;2024-01-10T04:15:27;38.63;;;16.63;;
31990;SDS011;18508;49.386;8.370;2024-01-10T04:17:55;43.17;;;16.48;;
31990;SDS011;18508;49.386;8.370;2024-01-10T04:20:23;40.40;;;17.55;;
31990;SDS011;18508;49.386;8.370;2024-01-10T04:22:52;40.17;;;16.98;;
31990;SDS011;18508;49.386;8.370;2024-01-10T04:25:20;44.22;;;16.45;;
31990;SDS011;18508;49.386;8.370;2024-01-10T04:27:50;48.38;;;18.73;;
31990;SDS011;18508;49.386;8.370;2024-01-10T04:30:18;50.00;;;17.35;;
31990;SDS011;18508;49.386;8.370;2024-01-10T04:32:47;46.38;;;17.05;;
31990;SDS011;18508;49.386;8.370;2024-01-10T04:35:15;49.08;;;19.55;;
31990;SDS011;18508;49.386;8.370;2024-01-10T04:37:44;42.92;;;17.38;;
31990;SDS011;18508;49.386;8.370;2024-01-10T04:40:12;42.00;;;17.15;;
31990;SDS011;18508;49.386;8.370;2024-01-10T04:42:41;47.58;;;17.80;;
31990;SDS011;18508;49.386;8.370;2024-01-10T04:45:11;38.60;;;16.67;;
31990;SDS011;18508;49.386;8.370;2024-01-10T04:47:39;43.45;;;17.30;;
31990;SDS011;18508;49.386;8.370;2024-01-10T04:50:08;43.30;;;18.63;;
31990;SDS011;18508;49.386;8.370;2024-01-10T04:52:40;42.22;;;17.63;;
31990;SDS011;18508;49.386;8.370;2024-01-10T04:55:08;43.92;;;17.38;;
31990;SDS011;18508;49.386;8.370;2024-01-10T04:57:37;40.63;;;17.65;;
31990;SDS011;18508;49.386;8.370;2024-01-10T05:00:05;44.20;;;19.33;;
31990;SDS011;18508;49.386;8.370;2024-01-10T05:02:36;47.60;;;18.48;;
31990;SDS011;18508;49.386;8.370;2024-01-10T05:05:05;46.75;;;18.73;;
31990;SDS011;18508;49.386;8.370;2024-01-10T05:07:34;45.88;;;19.83;;
31990;SDS011;18508;49.386;8.370;2024-01-10T05:10:03;42.90;;;18.20;;
31990;SDS011;18508;49.386;8.370;2024-01-10T05:12:33;45.03;;;17.42;;
31990;SDS011;18508;49.386;8.370;2024-01-10T05:15:01;49.67;;;20.48;;
31990;SDS011;18508;49.386;8.370;2024-01-10T05:17:30;46.35;;;19.27;;
31990;SDS011;18508;49.386;8.370;2024-01-10T05:20:00;52.38;;;18.83;;
31990;SDS011;18508;49.386;8.370;2024-01-10T05:22:31;48.50;;;19.23;;
31990;SDS011;18508;49.386;8.370;2024-01-10T05:24:59;43.33;;;18.17;;
31990;SDS011;18508;49.386;8.370;2024-01-10T05:27:28;44.20;;;17.73;;
31990;SDS011;18508;49.386;8.370;2024-01-10T05:29:56;47.63;;;19.45;;
31990;SDS011;18508;49.386;8.370;2024-01-10T05:32:26;56.75;;;20.33;;
31990;SDS011;18508;49.386;8.370;2024-01-10T05:34:55;57.17;;;19.17;;
31990;SDS011;18508;49.386;8.370;2024-01-10T05:37:25;48.28;;;20.23;;
31990;SDS011;18508;49.386;8.370;2024-01-10T05:39:53;50.53;;;19.45;;
31990;SDS011;18508;49.386;8.370;2024-01-10T05:42:23;53.17;;;19.67;;
31990;SDS011;18508;49.386;8.370;2024-01-10T05:44:51;45.03;;;19.02;;
31990;SDS011;18508;49.386;8.370;2024-01-10T05:47:19;42.80;;;19.20;;
31990;SDS011;18508;49.386;8.370;2024-01-10T05:49:48;52.97;;;21.48;;
31990;SDS011;18508;49.386;8.370;2024-01-10T05:52:16;46.83;;;19.40;;
31990;SDS011;18508;49.386;8.370;2024-01-10T05:54:47;52.25;;;20.45;;
31990;SDS011;18508;49.386;8.370;2024-01-10T05:57:16;47.83;;;18.67;;
31990;SDS011;18508;49.386;8.370;2024-01-10T05:59:44;49.22;;;19.35;;
31990;SDS011;18508;49.386;8.370;2024-01-10T06:02:13;45.75;;;18.42;;
31990;SDS011;18508;49.386;8.370;2024-01-10T06:04:43;51.13;;;20.83;;
31990;SDS011;18508;49.386;8.370;2024-01-10T06:07:12;41.85;;;18.73;;
31990;SDS011;18508;49.386;8.370;2024-01-10T06:09:41;49.97;;;20.60;;
31990;SDS011;18508;49.386;8.370;2024-01-10T06:12:13;48.67;;;21.45;;
31990;SDS011;18508;49.386;8.370;2024-01-10T06:14:41;49.97;;;20.55;;
31990;SDS011;18508;49.386;8.370;2024-01-10T06:17:10;53.45;;;22.52;;
31990;SDS011;18508;49.386;8.370;2024-01-10T06:19:38;55.22;;;21.95;;
31990;SDS011;18508;49.386;8.370;2024-01-10T06:22:07;53.20;;;21.13;;
31990;SDS011;18508;49.386;8.370;2024-01-10T06:24:37;48.67;;;20.17;;
31990;SDS011;18508;49.386;8.370;2024-01-10T06:27:08;48.20;;;20.38;;
31990;SDS011;18508;49.386;8.370;2024-01-10T06:29:39;54.38;;;22.00;;
31990;SDS011;18508;49.386;8.370;2024-01-10T06:32:07;52.38;;;21.10;;
31990;SDS011;18508;49.386;8.370;2024-01-10T06:34:36;52.53;;;21.15;;
31990;SDS011;18508;49.386;8.370;2024-01-10T06:37:04;55.08;;;21.65;;
31990;SDS011;18508;49.386;8.370;2024-01-10T06:39:34;48.05;;;20.02;;
31990;SDS011;18508;49.386;8.370;2024-01-10T06:42:02;50.38;;;20.60;;
31990;SDS011;18508;49.386;8.370;2024-01-10T06:44:32;54.33;;;21.63;;
31990;SDS011;18508;49.386;8.370;2024-01-10T06:47:03;57.20;;;22.33;;
31990;SDS011;18508;49.386;8.370;2024-01-10T06:49:31;49.42;;;20.35;;
31990;SDS011;18508;49.386;8.370;2024-01-10T06:52:00;54.97;;;21.45;;
31990;SDS011;18508;49.386;8.370;2024-01-10T06:54:30;51.33;;;21.77;;
31990;SDS011;18508;49.386;8.370;2024-01-10T06:56:59;52.53;;;21.45;;
31990;SDS011;18508;49.386;8.370;2024-01-10T06:59:28;60.75;;;21.48;;
31990;SDS011;18508;49.386;8.370;2024-01-10T07:01:57;59.55;;;21.73;;
31990;SDS011;18508;49.386;8.370;2024-01-10T07:04:29;56.75;;;21.65;;
31990;SDS011;18508;49.386;8.370;2024-01-10T07:06:58;56.90;;;24.30;;
31990;SDS011;18508;49.386;8.370;2024-01-10T07:09:27;54.75;;;21.10;;
31990;SDS011;18508;49.386;8.370;2024-01-10T07:11:55;52.00;;;21.75;;
31990;SDS011;18508;49.386;8.370;2024-01-10T07:14:24;53.92;;;21.80;;
31990;SDS011;18508;49.386;8.370;2024-01-10T07:16:52;56.30;;;20.55;;
31990;SDS011;18508;49.386;8.370;2024-01-10T07:19:23;52.40;;;20.80;;
31990;SDS011;18508;49.386;8.370;2024-01-10T07:21:53;52.50;;;20.77;;
31990;SDS011;18508;49.386;8.370;2024-01-10T07:24:21;48.03;;;20.52;;
31990;SDS011;18508;49.386;8.370;2024-01-10T07:26:51;50.80;;;21.75;;
31990;SDS011;18508;49.386;8.370;2024-01-10T07:29:19;48.58;;;20.80;;
31990;SDS011;18508;49.386;8.370;2024-01-10T07:31:48;45.53;;;20.67;;
31990;SDS011;18508;49.386;8.370;2024-01-10T07:34:19;53.65;;;20.92;;
31990;SDS011;18508;49.386;8.370;2024-01-10T07:36:50;53.50;;;21.08;;
31990;SDS011;18508;49.386;8.370;2024-01-10T07:39:21;58.75;;;21.98;;
31990;SDS011;18508;49.386;8.370;2024-01-10T07:41:49;55.22;;;21.63;;
31990;SDS011;18508;49.386;8.370;2024-01-10T07:44:18;55.67;;;22.23;;
31990;SDS011;18508;49.386;8.370;2024-01-10T07:46:47;56.03;;;21.15;;
31990;SDS011;18508;49.386;8.370;2024-01-10T07:49:18;52.33;;;21.55;;
31990;SDS011;18508;49.386;8.370;2024-01-10T07:51:47;52.50;;;20.75;;
31990;SDS011;18508;49.386;8.370;2024-01-10T07:54:19;53.42;;;22.13;;
31990;SDS011;18508;49.386;8.370;2024-01-10T07:56:49;48.15;;;21.20;;
31990;SDS011;18508;49.386;8.370;2024-01-10T07:59:19;49.15;;;20.75;;
31990;SDS011;18508;49.386;8.370;2024-01-10T08:01:54;49.72;;;21.80;;
31990;SDS011;18508;49.386;8.370;2024-01-10T08:04:27;61.28;;;22.50;;
31990;SDS011;18508;49.386;8.370;2024-01-10T08:06:57;56.95;;;20.85;;
31990;SDS011;18508;49.386;8.370;2024-01-10T08:09:27;53.03;;;21.90;;
31990;SDS011;18508;49.386;8.370;2024-01-10T08:11:57;50.70;;;23.10;;
31990;SDS011;18508;49.386;8.370;2024-01-10T08:14:26;54.30;;;22.58;;
31990;SDS011;18508;49.386;8.370;2024-01-10T08:16:54;57.72;;;21.73;;
31990;SDS011;18508;49.386;8.370;2024-01-10T08:19:24;43.58;;;20.55;;
31990;SDS011;18508;49.386;8.370;2024-01-10T08:21:53;46.08;;;20.70;;
31990;SDS011;18508;49.386;8.370;2024-01-10T08:24:22;57.95;;;20.70;;
31990;SDS011;18508;49.386;8.370;2024-01-10T08:26:52;49.95;;;21.23;;
31990;SDS011;18508;49.386;8.370;2024-01-10T08:29:23;50.20;;;21.55;;
31990;SDS011;18508;49.386;8.370;2024-01-10T08:31:57;51.05;;;21.98;;
31990;SDS011;18508;49.386;8.370;2024-01-10T08:34:25;56.50;;;21.75;;
31990;SDS011;18508;49.386;8.370;2024-01-10T08:36:54;49.83;;;20.67;;
31990;SDS011;18508;49.386;8.370;2024-01-10T08:39:22;51.30;;;21.40;;
31990;SDS011;18508;49.386;8.370;2024-01-10T08:41:54;52.80;;;21.42;;
31990;SDS011;18508;49.386;8.370;2024-01-10T08:44:25;50.60;;;21.13;;
31990;SDS011;18508;49.386;8.370;2024-01-10T08:46:53;51.22;;;22.35;;
31990;SDS011;18508;49.386;8.370;2024-01-10T08:49:21;50.17;;;20.48;;
31990;SDS011;18508;49.386;8.370;2024-01-10T08:51:50;54.53;;;20.92;;
31990;SDS011;18508;49.386;8.370;2024-01-10T08:54:20;49.42;;;20.42;;
31990;SDS011;18508;49.386;8.370;2024-01-10T08:56:49;44.70;;;19.45;;
31990;SDS011;18508;49.386;8.370;2024-01-10T08:59:17;52.00;;;21.95;;
31990;SDS011;18508;49.386;8.370;2024-01-10T09:01:47;54.08;;;22.30;;
31990;SDS011;18508;49.386;8.370;2024-01-10T09:04:17;52.17;;;20.67;;
31990;SDS011;18508;49.386;8.370;2024-01-10T09:06:46;62.70;;;22.80;;
31990;SDS011;18508;49.386;8.370;2024-01-10T09:09:15;53.58;;;22.25;;
31990;SDS011;18508;49.386;8.370;2024-01-10T09:11:48;48.17;;;19.98;;
31990;SDS011;18508;49.386;8.370;2024-01-10T09:14:16;45.30;;;20.70;;
31990;SDS011;18508;49.386;8.370;2024-01-10T09:16:45;57.42;;;22.05;;
31990;SDS011;18508;49.386;8.370;2024-01-10T09:19:15;50.58;;;21.15;;
31990;SDS011;18508;49.386;8.370;2024-01-10T09:21:47;44.70;;;19.52;;
31990;SDS011;18508;49.386;8.370;2024-01-10T09:24:16;44.03;;;21.67;;
31990;SDS011;18508;49.386;8.370;2024-01-10T09:26:55;44.80;;;19.40;;
31990;SDS011;18508;49.386;8.370;2024-01-10T09:29:24;42.33;;;20.33;;
31990;SDS011;18508;49.386;8.370;2024-01-10T09:31:53;41.92;;;18.48;;
31990;SDS011;18508;49.386;8.370;2024-01-10T09:34:24;45.78;;;19.75;;
31990;SDS011;18508;49.386;8.370;2024-01-10T09:36:53;43.33;;;20.45;;
31990;SDS011;18508;49.386;8.370;2024-01-10T09:39:22;48.97;;;20.35;;
31990;SDS011;18508;49.386;8.370;2024-01-10T09:41:50;46.42;;;19.90;;
31990;SDS011;18508;49.386;8.370;2024-01-10T09:44:19;50.13;;;20.70;;
31990;SDS011;18508;49.386;8.370;2024-01-10T09:46:51;44.55;;;19.02;;
31990;SDS011;18508;49.386;8.370;2024-01-10T09:49:20;41.95;;;18.30;;
31990;SDS011;18508;49.386;8.370;2024-01-10T09:51:53;40.50;;;18.52;;
31990;SDS011;18508;49.386;8.370;2024-01-10T09:54:26;43.60;;;19.23;;
31990;SDS011;18508;49.386;8.370;2024-01-10T09:56:57;41.67;;;17.25;;
31990;SDS011;18508;49.386;8.370;2024-01-10T09:59:30;43.95;;;19.38;;
31990;SDS011;18508;49.386;8.370;2024-01-10T10:02:00;43.03;;;18.23;;
31990;SDS011;18508;49.386;8.370;2024-01-10T10:04:32;44.50;;;17.27;;
31990;SDS011;18508;49.386;8.370;2024-01-10T10:07:02;35.53;;;15.50;;
31990;SDS011;18508;49.386;8.370;2024-01-10T10:09:30;38.53;;;16.23;;
31990;SDS011;18508;49.386;8.370;2024-01-10T10:11:59;45.47;;;16.70;;
31990;SDS011;18508;49.386;8.370;2024-01-10T10:14:29;46.67;;;17.33;;
31990;SDS011;18508;49.386;8.370;2024-01-10T10:17:13;40.50;;;17.00;;
31990;SDS011;18508;49.386;8.370;2024-01-10T10:19:43;34.47;;;15.77;;
31990;SDS011;18508;49.386;8.370;2024-01-10T10:22:13;35.67;;;15.43;;
31990;SDS011;18508;49.386;8.370;2024-01-10T10:24:42;37.05;;;15.77;;
31990;SDS011;18508;49.386;8.370;2024-01-10T10:27:12;40.67;;;16.05;;
31990;SDS011;18508;49.386;8.370;2024-01-10T10:29:44;40.30;;;16.38;;
31990;SDS011;18508;49.386;8.370;2024-01-10T10:32:14;36.42;;;14.38;;
31990;SDS011;18508;49.386;8.370;2024-01-10T10:34:44;44.53;;;16.38;;
31990;SDS011;18508;49.386;8.370;2024-01-10T10:37:15;36.53;;;16.42;;
31990;SDS011;18508;49.386;8.370;2024-01-10T10:39:43;37.20;;;15.45;;
31990;SDS011;18508;49.386;8.370;2024-01-10T10:42:12;40.28;;;16.55;;
31990;SDS011;18508;49.386;8.370;2024-01-10T10:44:41;44.55;;;17.33;;
31990;SDS011;18508;49.386;8.370;2024-01-10T10:47:14;41.53;;;15.98;;
31990;SDS011;18508;49.386;8.370;2024-01-10T10:49:47;41.58;;;16.67;;
31990;SDS011;18508;49.386;8.370;2024-01-10T10:52:22;42.80;;;17.25;;
31990;SDS011;18508;49.386;8.370;2024-01-10T10:54:51;32.78;;;14.65;;
31990;SDS011;18508;49.386;8.370;2024-01-10T10:57:24;34.80;;;15.50;;
31990;SDS011;18508;49.386;8.370;2024-01-10T10:59:57;36.75;;;15.43;;
31990;SDS011;18508;49.386;8.370;2024-01-10T11:02:27;37.47;;;16.35;;
31990;SDS011;18508;49.386;8.370;2024-01-10T11:04:57;34.83;;;14.88;;
31990;SDS011;18508;49.386;8.370;2024-01-10T11:07:31;37.92;;;15.27;;
31990;SDS011;18508;49.386;8.370;2024-01-10T11:10:05;41.92;;;16.48;;
31990;SDS011;18508;49.386;8.370;2024-01-10T11:19:00;25.48;;;12.20;;
31990;SDS011;18508;49.386;8.370;2024-01-10T11:21:55;36.72;;;15.85;;
31990;SDS011;18508;49.386;8.370;2024-01-10T11:24:33;30.33;;;15.02;;
31990;SDS011;18508;49.386;8.370;2024-01-10T11:27:10;33.25;;;15.43;;
31990;SDS011;18508;49.386;8.370;2024-01-10T11:29:39;33.58;;;14.48;;
31990;SDS011;18508;49.386;8.370;2024-01-10T11:32:12;30.75;;;13.65;;
31990;SDS011;18508;49.386;8.370;2024-01-10T11:34:49;32.88;;;15.10;;
31990;SDS011;18508;49.386;8.370;2024-01-10T11:37:27;32.15;;;14.30;;
31990;SDS011;18508;49.386;8.370;2024-01-10T11:40:09;31.13;;;14.80;;
31990;SDS011;18508;49.386;8.370;2024-01-10T11:42:42;30.65;;;14.57;;
31990;SDS011;18508;49.386;8.370;2024-01-10T11:45:15;32.38;;;15.07;;
31990;SDS011;18508;49.386;8.370;2024-01-10T11:48:04;29.88;;;14.73;;
31990;SDS011;18508;49.386;8.370;2024-01-10T11:50:35;37.42;;;15.68;;
31990;SDS011;18508;49.386;8.370;2024-01-10T11:53:04;31.65;;;14.57;;
31990;SDS011;18508;49.386;8.370;2024-01-10T11:58:18;32.90;;;15.95;;
31990;SDS011;18508;49.386;8.370;2024-01-10T12:00:47;34.63;;;14.65;;
31990;SDS011;18508;49.386;8.370;2024-01-10T12:03:16;33.22;;;14.18;;
31990;SDS011;18508;49.386;8.370;2024-01-10T12:05:46;33.78;;;14.55;;
31990;SDS011;18508;49.386;8.370;2024-01-10T12:08:15;42.42;;;16.27;;
31990;SDS011;18508;49.386;8.370;2024-01-10T12:10:43;37.03;;;16.88;;
31990;SDS011;18508;49.386;8.370;2024-01-10T12:13:14;32.50;;;14.85;;
31990;SDS011;18508;49.386;8.370;2024-01-10T12:15:42;32.20;;;15.10;;
31990;SDS011;18508;49.386;8.370;2024-01-10T12:18:11;30.63;;;14.05;;
31990;SDS011;18508;49.386;8.370;2024-01-10T12:20:40;33.70;;;15.48;;
31990;SDS011;18508;49.386;8.370;2024-01-10T12:23:10;31.23;;;15.35;;
31990;SDS011;18508;49.386;8.370;2024-01-10T12:25:38;29.92;;;14.55;;
31990;SDS011;18508;49.386;8.370;2024-01-10T12:28:07;34.22;;;14.68;;
31990;SDS011;18508;49.386;8.370;2024-01-10T12:30:39;31.10;;;15.05;;
31990;SDS011;18508;49.386;8.370;2024-01-10T12:33:08;35.88;;;15.93;;
31990;SDS011;18508;49.386;8.370;2024-01-10T12:35:37;32.38;;;15.57;;
31990;SDS011;18508;49.386;8.370;2024-01-10T12:38:10;38.83;;;15.23;;
31990;SDS011;18508;49.386;8.370;2024-01-10T12:40:38;30.90;;;14.18;;
31990;SDS011;18508;49.386;8.370;2024-01-10T12:43:07;32.72;;;14.00;;
31990;SDS011;18508;49.386;8.370;2024-01-10T12:45:37;38.05;;;16.35;;
31990;SDS011;18508;49.386;8.370;2024-01-10T12:48:12;35.03;;;15.73;;
31990;SDS011;18508;49.386;8.370;2024-01-10T12:50:41;36.22;;;16.50;;
31990;SDS011;18508;49.386;8.370;2024-01-10T12:53:10;33.92;;;15.80;;
31990;SDS011;18508;49.386;8.370;2024-01-10T12:55:39;32.63;;;14.73;;
31990;SDS011;18508;49.386;8.370;2024-01-10T12:58:07;36.80;;;15.70;;
31990;SDS011;18508;49.386;8.370;2024-01-10T13:00:38;36.90;;;15.95;;
31990;SDS011;18508;49.386;8.370;2024-01-10T13:03:07;34.13;;;16.08;;
31990;SDS011;18508;49.386;8.370;2024-01-10T13:05:36;33.92;;;15.52;;
31990;SDS011;18508;49.386;8.370;2024-01-10T13:08:05;34.28;;;15.75;;
31990;SDS011;18508;49.386;8.370;2024-01-10T13:10:34;33.00;;;16.02;;
31990;SDS011;18508;49.386;8.370;2024-01-10T13:13:03;34.97;;;16.10;;
31990;SDS011;18508;49.386;8.370;2024-01-10T13:15:31;35.45;;;16.13;;
31990;SDS011;18508;49.386;8.370;2024-01-10T13:18:01;36.08;;;15.82;;
31990;SDS011;18508;49.386;8.370;2024-01-10T13:20:30;32.92;;;15.98;;
31990;SDS011;18508;49.386;8.370;2024-01-10T13:22:59;34.63;;;15.48;;
31990;SDS011;18508;49.386;8.370;2024-01-10T13:25:28;31.13;;;15.07;;
31990;SDS011;18508;49.386;8.370;2024-01-10T13:27:58;38.17;;;15.82;;
31990;SDS011;18508;49.386;8.370;2024-01-10T13:30:28;32.47;;;15.02;;
31990;SDS011;18508;49.386;8.370;2024-01-10T13:32:56;37.67;;;16.88;;
31990;SDS011;18508;49.386;8.370;2024-01-10T13:35:27;30.80;;;15.52;;
31990;SDS011;18508;49.386;8.370;2024-01-10T13:37:55;33.92;;;15.60;;
31990;SDS011;18508;49.386;8.370;2024-01-10T13:40:24;39.00;;;15.93;;
31990;SDS011;18508;49.386;8.370;2024-01-10T13:42:53;36.03;;;16.40;;
31990;SDS011;18508;49.386;8.370;2024-01-10T13:45:21;37.72;;;15.52;;
31990;SDS011;18508;49.386;8.370;2024-01-10T13:47:50;34.30;;;16.08;;
31990;SDS011;18508;49.386;8.370;2024-01-10T13:54:05;36.65;;;16.55;;
31990;SDS011;18508;49.386;8.370;2024-01-10T13:56:33;35.35;;;15.68;;
31990;SDS011;18508;49.386;8.370;2024-01-10T13:59:02;33.88;;;15.85;;
31990;SDS011;18508;49.386;8.370;2024-01-10T14:01:31;37.47;;;15.80;;
31990;SDS011;18508;49.386;8.370;2024-01-10T14:04:00;36.55;;;16.75;;
31990;SDS011;18508;49.386;8.370;2024-01-10T14:06:29;36.05;;;15.82;;
31990;SDS011;18508;49.386;8.370;2024-01-10T14:08:57;36.28;;;16.10;;
31990;SDS011;18508;49.386;8.370;2024-01-10T14:11:27;35.55;;;16.63;;
31990;SDS011;18508;49.386;8.370;2024-01-10T14:13:55;34.92;;;15.88;;
31990;SDS011;18508;49.386;8.370;2024-01-10T14:16:24;39.08;;;16.65;;
31990;SDS011;18508;49.386;8.370;2024-01-10T14:18:54;38.97;;;17.30;;
31990;SDS011;18508;49.386;8.370;2024-01-10T14:21:23;31.95;;;15.63;;
31990;SDS011;18508;49.386;8.370;2024-01-10T14:23:51;32.30;;;15.30;;
31990;SDS011;18508;49.386;8.370;2024-01-10T14:26:20;33.20;;;15.25;;
31990;SDS011;18508;49.386;8.370;2024-01-10T14:28:50;33.72;;;15.27;;
31990;SDS011;18508;49.386;8.370;2024-01-10T14:31:21;36.30;;;15.85;;
31990;SDS011;18508;49.386;8.370;2024-01-10T14:34:04;32.72;;;16.77;;
31990;SDS011;18508;49.386;8.370;2024-01-10T14:36:36;37.45;;;16.17;;
31990;SDS011;18508;49.386;8.370;2024-01-10T14:39:05;37.85;;;17.63;;
31990;SDS011;18508;49.386;8.370;2024-01-10T14:41:39;38.60;;;15.32;;
31990;SDS011;18508;49.386;8.370;2024-01-10T14:44:09;32.03;;;15.13;;
31990;SDS011;18508;49.386;8.370;2024-01-10T14:46:38;37.42;;;16.92;;
31990;SDS011;18508;49.386;8.370;2024-01-10T14:49:09;38.20;;;15.65;;